createdAt,value
2023-05-12T00:04:40.589Z,6.00
2023-05-12T00:10:42.694Z,6.40
2023-05-12T00:16:44.731Z,5.47
2023-05-12T00:22:46.698Z,6.30
2023-05-12T00:28:48.797Z,5.33
2023-05-12T00:34:50.976Z,5.87
2023-05-12T00:40:52.864Z,4.90
2023-05-12T00:46:55.337Z,5.83
2023-05-12T00:52:58.457Z,5.87
2023-05-12T00:59:00.337Z,5.37
2023-05-12T01:05:03.167Z,5.53
2023-05-12T01:11:05.157Z,4.80
2023-05-12T01:17:15.785Z,5.10
2023-05-12T01:23:20.133Z,4.40
2023-05-12T01:29:23.386Z,4.03
2023-05-12T01:35:25.450Z,3.67
2023-05-12T01:41:27.330Z,4.37
2023-05-12T01:47:29.275Z,4.47
2023-05-12T01:53:31.222Z,4.37
2023-05-12T01:59:33.128Z,4.13
2023-05-12T02:05:35.547Z,4.83
2023-05-12T02:11:37.489Z,4.80
2023-05-12T02:17:39.470Z,4.60
2023-05-12T02:23:41.541Z,4.80
2023-05-12T02:29:43.440Z,4.57
2023-05-12T02:35:45.786Z,4.40
2023-05-12T02:41:48.018Z,5.73
2023-05-12T02:47:49.969Z,4.20
2023-05-12T02:53:52.301Z,4.83
2023-05-12T02:59:54.189Z,4.60
2023-05-12T03:05:56.214Z,5.60
2023-05-12T03:11:58.155Z,5.07
2023-05-12T03:18:00.247Z,5.20
2023-05-12T03:24:02.212Z,4.57
2023-05-12T03:30:05.678Z,5.13
2023-05-12T03:36:07.996Z,4.43
2023-05-12T03:42:09.879Z,5.60
2023-05-12T03:48:11.816Z,5.40
2023-05-12T03:54:13.767Z,6.20
2023-05-12T04:00:18.446Z,4.90
2023-05-12T04:06:20.649Z,4.90
2023-05-12T04:12:22.619Z,4.53
2023-05-12T04:18:26.362Z,4.13
2023-05-12T04:24:28.378Z,4.40
2023-05-12T04:30:30.291Z,5.40
2023-05-12T04:36:33.625Z,5.57
2023-05-12T04:42:35.831Z,6.10
2023-05-12T04:48:41.900Z,5.03
2023-05-12T04:54:43.823Z,4.80
2023-05-12T05:00:45.900Z,4.70
2023-05-12T05:06:47.794Z,4.33
2023-05-12T05:12:49.701Z,4.40
2023-05-12T05:18:52.096Z,4.30
2023-05-12T05:24:54.036Z,4.30
2023-05-12T05:30:55.988Z,4.73
2023-05-12T05:36:57.885Z,3.80
2023-05-12T05:42:59.927Z,4.20
2023-05-12T05:49:01.819Z,5.37
2023-05-12T05:55:03.929Z,4.30
2023-05-12T06:01:06.011Z,4.17
2023-05-12T06:07:07.957Z,4.87
2023-05-12T06:13:10.044Z,4.00
2023-05-12T06:19:12.639Z,3.87
2023-05-12T06:25:14.821Z,4.37
2023-05-12T06:31:17.031Z,5.50
2023-05-12T06:37:18.991Z,5.17
2023-05-12T06:43:20.904Z,4.83
2023-05-12T06:49:23.098Z,5.47
2023-05-12T06:55:25.055Z,6.00
2023-05-12T07:01:31.789Z,5.90
2023-05-12T07:24:00.937Z,6.10
2023-05-12T08:47:40.188Z,3.90
2023-05-12T10:47:52.142Z,2.77
2023-05-12T11:01:40.263Z,2.47
2023-05-12T11:54:31.193Z,3.13
2023-05-12T12:01:36.170Z,3.37
2023-05-12T12:38:49.231Z,2.97
2023-05-12T12:53:39.844Z,3.13
2023-05-12T13:06:47.763Z,2.70
2023-05-12T13:20:38.134Z,2.43
2023-05-12T13:26:43.421Z,2.57
2023-05-12T14:18:55.942Z,2.63
2023-05-12T14:25:56.842Z,2.07
2023-05-12T14:32:18.436Z,2.70
2023-05-12T14:38:20.949Z,2.17
2023-05-12T14:44:29.145Z,2.60
2023-05-12T14:58:59.747Z,2.33
2023-05-12T15:13:21.293Z,2.57
2023-05-12T15:19:38.163Z,2.37
2023-05-12T15:25:41.882Z,2.20
2023-05-12T15:54:04.635Z,2.70
2023-05-12T16:00:38.721Z,2.47
2023-05-12T16:07:06.226Z,2.30
2023-05-12T16:14:09.026Z,2.60
2023-05-12T16:20:15.543Z,2.30
2023-05-12T16:26:44.788Z,2.60
2023-05-12T16:32:50.876Z,2.90
2023-05-12T16:39:22.270Z,2.83
2023-05-12T16:46:33.531Z,2.93
2023-05-12T16:52:43.218Z,2.70
2023-05-12T16:58:54.584Z,2.43
2023-05-12T17:05:13.678Z,2.60
2023-05-12T17:12:11.698Z,2.63
2023-05-12T17:19:13.598Z,2.40
2023-05-12T17:25:37.944Z,2.83
2023-05-12T17:32:01.081Z,3.00
2023-05-12T17:38:09.434Z,3.50
2023-05-12T17:44:15.111Z,2.97
2023-05-12T17:50:30.947Z,3.33
2023-05-12T17:56:33.556Z,2.87
2023-05-12T18:03:24.649Z,2.50
2023-05-12T18:10:14.483Z,2.97
2023-05-12T18:16:27.986Z,3.50
2023-05-12T18:31:00.302Z,3.30
2023-05-12T18:37:17.828Z,3.27
2023-05-12T18:52:05.425Z,3.10
2023-05-12T18:58:29.472Z,2.70
2023-05-12T19:04:31.372Z,3.60
2023-05-12T19:10:33.269Z,3.33
2023-05-12T19:16:36.302Z,3.10
2023-05-12T19:22:38.379Z,3.30
2023-05-12T19:28:40.302Z,3.77
2023-05-12T19:34:42.241Z,3.70
2023-05-12T19:40:44.287Z,3.70
2023-05-12T19:46:47.042Z,3.50
2023-05-12T19:52:49.018Z,3.33
2023-05-12T19:58:52.277Z,3.30
2023-05-12T20:04:54.528Z,3.20
2023-05-12T20:10:56.528Z,3.70
2023-05-12T20:16:59.062Z,3.40
2023-05-12T20:23:01.311Z,3.10
2023-05-12T20:29:03.275Z,3.33
2023-05-12T20:35:07.006Z,3.33
2023-05-12T20:41:08.972Z,3.30
2023-05-12T20:47:11.110Z,3.10
2023-05-12T20:53:13.047Z,3.60
2023-05-12T20:59:15.120Z,3.50
2023-05-12T21:05:17.003Z,3.30
2023-05-12T21:11:19.418Z,3.23
2023-05-12T21:17:21.766Z,2.90
2023-05-12T21:23:23.724Z,3.47
2023-05-12T21:29:25.655Z,3.30
2023-05-12T21:35:27.620Z,2.90
2023-05-12T21:41:30.164Z,3.33
2023-05-12T21:47:32.088Z,3.47
2023-05-12T21:53:34.041Z,3.70
2023-05-12T21:59:35.949Z,3.10
2023-05-12T22:05:37.905Z,3.60
2023-05-12T22:11:39.789Z,3.23
2023-05-12T22:17:41.843Z,3.33
2023-05-12T22:23:43.812Z,3.50
2023-05-12T22:29:45.777Z,3.27
2023-05-12T22:35:47.671Z,3.00
2023-05-12T22:41:49.559Z,3.30
2023-05-12T22:47:51.450Z,3.43
2023-05-12T22:53:53.359Z,3.30
2023-05-12T22:59:55.450Z,2.80
2023-05-12T23:05:57.316Z,3.43
2023-05-12T23:11:59.194Z,3.17
2023-05-12T23:18:01.230Z,3.60
2023-05-12T23:24:03.270Z,3.50
2023-05-12T23:30:06.519Z,3.60
2023-05-12T23:36:08.999Z,3.67
2023-05-12T23:42:10.921Z,3.70
2023-05-12T23:48:12.886Z,3.60
2023-05-12T23:54:14.824Z,3.57
